Time;durP1;ratioP1;P1;durP2;ratioP2;P2;SDS_P1;SDS_P2;PMS_P1;PMS_P2;Temp;Humidity;BMP_temperature;BMP_pressure;BME280_temperature;BME280_humidity;BME280_pressure;Samples;Min_cycle;Max_cycle;Signal;HPM_P1;HPM_P2
2021/04/27 00:00:48;;;;;;;31.48;4.60;;;;;;;;;;5090928;28;20382;-74
2021/04/27 00:03:14;;;;;;;7.17;3.70;;;10.20;70.30;;;;;;5089988;28;20681;-74
2021/04/27 00:05:41;;;;;;;9.93;3.10;;;;;;;;;;5090469;28;20461;-74
2021/04/27 00:08:07;;;;;;;20.80;4.63;;;;;;;;;;5089818;28;20852;-74
2021/04/27 00:10:33;;;;;;;20.98;4.35;;;;;;;;;;5090784;28;20375;-74
2021/04/27 00:13:01;;;;;;;10.75;3.70;;;;;;;;;;5089866;28;20474;-74
2021/04/27 00:15:28;;;;;;;5.80;3.20;;;10.00;81.60;;;;;;5090887;28;20722;-74
2021/04/27 00:17:54;;;;;;;28.37;4.83;;;;;;;;;;5090508;28;20366;-75
2021/04/27 00:20:23;;;;;;;6.28;3.03;;;9.80;68.10;;;;;;5089897;28;20390;-73
2021/04/27 00:22:50;;;;;;;4.20;2.80;;;;;;;;;;5090608;28;20374;-74
2021/04/27 00:25:16;;;;;;;46.15;6.43;;;;;;;;;;5071591;28;20853;-74
2021/04/27 00:27:46;;;;;;;8.73;2.75;;;;;;;;;;5090134;28;20381;-74
2021/04/27 00:30:13;;;;;;;41.20;6.93;;;;;;;;;;5089653;28;20394;-74
2021/04/27 00:32:38;;;;;;;4.18;3.00;;;10.00;71.60;;;;;;5072430;28;20396;-74
2021/04/27 00:35:05;;;;;;;28.52;5.57;;;;;;;;;;5089655;28;20696;-74
2021/04/27 00:37:31;;;;;;;4.97;3.00;;;;;;;;;;5090335;28;20501;-73
2021/04/27 00:39:57;;;;;;;11.75;3.05;;;;;;;;;;5091498;28;20378;-75
2021/04/27 00:42:32;;;;;;;3.63;2.97;;;;;;;;;;5094345;28;20377;-73
2021/04/27 00:44:59;;;;;;;4.20;2.60;;;;;;;;;;5075277;28;20413;-75
2021/04/27 00:47:25;;;;;;;4.72;2.90;;;;;;;;;;5094311;28;20374;-74
2021/04/27 00:49:54;;;;;;;7.90;2.78;;;9.40;79.50;;;;;;5094149;28;20699;-74
2021/04/27 00:52:20;;;;;;;9.30;3.00;;;;;;;;;;5093804;28;20455;-74
2021/04/27 00:54:46;;;;;;;8.15;2.75;;;;;;;;;;5094518;28;20378;-74
2021/04/27 00:57:12;;;;;;;3.83;2.72;;;;;;;;;;5093731;28;20439;-74
2021/04/27 00:59:38;;;;;;;5.78;2.15;;;;;;;;;;5094361;28;20377;-74
2021/04/27 01:02:04;;;;;;;3.47;2.10;;;9.60;83.70;;;;;;5093307;28;20370;-74
2021/04/27 01:04:30;;;;;;;4.07;1.85;;;;;;;;;;5094183;28;20377;-74
2021/04/27 01:06:56;;;;;;;2.78;2.17;;;;;;;;;;5094264;28;20366;-74
2021/04/27 01:09:43;;;;;;;6.15;2.58;;;;;;;;;;5093418;28;20401;-73
2021/04/27 01:12:09;;;;;;;5.30;2.53;;;;;;;;;;5093221;28;20428;-74
2021/04/27 01:14:37;;;;;;;2.83;2.30;;;;;;;;;;5093612;28;20394;-74
2021/04/27 01:17:06;;;;;;;3.60;2.50;;;9.20;84.70;;;;;;5093268;28;20699;-74
2021/04/27 01:19:40;;;;;;;11.95;3.17;;;9.40;84.30;;;;;;5093960;28;20413;-74
2021/04/27 01:22:12;;;;;;;14.18;3.00;;;9.20;74.10;;;;;;5092920;28;20465;-74
2021/04/27 01:24:46;;;;;;;2.92;2.20;;;;;;;;;;5093892;28;20799;-74
2021/04/27 01:27:13;;;;;;;2.10;1.45;;;;;;;;;;5092940;28;20362;-74
2021/04/27 01:29:39;;;;;;;1.38;1.27;;;9.20;73.40;;;;;;5093629;28;20421;-74
2021/04/27 01:32:06;;;;;;;2.55;1.50;;;;;;;;;;5093014;28;20435;-74
2021/04/27 01:34:38;;;;;;;2.97;1.20;;;9.40;81.10;;;;;;5093634;28;20370;-74
2021/04/27 01:37:06;;;;;;;2.50;1.60;;;;;;;;;;5092900;28;20385;-74
2021/04/27 01:39:32;;;;;;;1.85;1.35;;;8.90;85.90;;;;;;5093517;28;20377;-74
2021/04/27 01:42:03;;;;;;;1.33;1.23;;;;;;;;;;5093606;28;20473;-74
2021/04/27 01:44:30;;;;;;;4.07;1.77;;;;;;;;;;5093261;28;20402;-74
2021/04/27 01:46:57;;;;;;;2.75;1.73;;;;;;;;;;5093263;28;20367;-73
2021/04/27 01:49:23;;;;;;;1.35;1.20;;;8.90;85.70;;;;;;5092459;28;20535;-73
2021/04/27 01:51:53;;;;;;;1.50;1.40;;;8.70;77.80;;;;;;5092868;28;20386;-73
2021/04/27 01:54:28;;;;;;;0.90;0.70;;;8.60;77.30;;;;;;5091918;28;20489;-73
2021/04/27 01:56:54;;;;;;;2.95;1.38;;;;;;;;;;5108963;28;20446;-73
2021/04/27 01:59:20;;;;;;;0.95;0.95;;;;;;;;;;5092286;28;21257;-73
2021/04/27 02:01:47;;;;;;;0.82;0.82;;;8.50;78.80;;;;;;5093273;28;20402;-74
2021/04/27 02:04:26;;;;;;;0.80;0.77;;;8.50;78.80;;;;;;5092221;28;20375;-74
2021/04/27 02:06:53;;;;;;;2.30;1.00;;;;;;;;;;5092683;28;20842;-73
2021/04/27 02:09:21;;;;;;;1.20;0.90;;;8.10;88.30;;;;;;5091987;28;20404;-74
2021/04/27 02:11:50;;;;;;;1.50;1.20;;;;;;;;;;5093028;28;20780;-73
2021/04/27 02:14:16;;;;;;;1.27;1.10;;;;;;;;;;5091852;28;20405;-74
2021/04/27 02:16:47;;;;;;;1.17;0.90;;;;;;;;;;5092795;28;20894;-73
2021/04/27 02:19:13;;;;;;;1.20;0.90;;;;;;;;;;5091956;28;20425;-74
2021/04/27 02:21:40;;;;;;;1.70;1.50;;;8.00;77.80;;;;;;5092872;28;20850;-74
2021/04/27 02:24:08;;;;;;;0.80;0.80;;;;;;;;;;5091810;28;20424;-74
2021/04/27 02:26:34;;;;;;;0.57;0.57;;;;;;;;;;5074503;28;20877;-73
2021/04/27 02:29:01;;;;;;;1.50;0.60;;;;;;;;;;5092666;28;20394;-73
2021/04/27 02:31:29;;;;;;;1.02;0.93;;;;;;;;;;5091734;28;20385;-73
2021/04/27 02:33:55;;;;;;;0.65;0.65;;;;;;;;;;5092614;28;20366;-73
2021/04/27 02:36:20;;;;;;;0.80;0.80;;;8.00;80.40;;;;;;5091415;28;20418;-74
2021/04/27 02:38:46;;;;;;;0.60;0.50;;;8.50;88.60;;;;;;5092043;28;20382;-73
2021/04/27 02:41:12;;;;;;;4.40;0.70;;;;;;;;;;5091167;28;20405;-74
2021/04/27 02:43:39;;;;;;;0.60;0.40;;;;;;;;;;5092091;28;20409;-73
2021/04/27 02:46:05;;;;;;;0.90;0.35;;;;;;;;;;5091926;28;20858;-74
2021/04/27 02:48:31;;;;;;;0.90;0.80;;;;;;;;;;5091947;28;20870;-72
2021/04/27 02:50:59;;;;;;;0.80;0.70;;;;;;;;;;5092085;28;20402;-73
2021/04/27 02:53:25;;;;;;;0.70;0.30;;;;;;;;;;5091437;28;20366;-73
2021/04/27 02:55:52;;;;;;;2.50;0.80;;;;;;;;;;5092071;28;20374;-73
2021/04/27 02:58:18;;;;;;;0.40;0.40;;;;;;;;;;5091203;28;20389;-73
2021/04/27 03:00:44;;;;;;;0.50;0.47;;;;;;;;;;5091776;28;20394;-73
2021/04/27 03:03:10;;;;;;;0.80;0.50;;;;;;;;;;5090449;28;20374;-73
2021/04/27 03:05:36;;;;;;;1.00;0.80;;;8.00;81.60;;;;;;5091809;28;20388;-73
2021/04/27 03:08:03;;;;;;;0.40;0.30;;;;;;;;;;5091929;28;20378;-73
2021/04/27 03:10:29;;;;;;;1.10;1.10;;;;;;;;;;5091009;28;20376;-73
2021/04/27 03:12:55;;;;;;;0.53;0.30;;;7.90;85.70;;;;;;5091400;28;20453;-73
2021/04/27 03:15:21;;;;;;;0.90;0.90;;;8.00;82.10;;;;;;5072326;28;20409;-73
2021/04/27 03:17:47;;;;;;;1.42;0.50;;;7.90;84.80;;;;;;5091654;28;20863;-73
2021/04/27 03:20:14;;;;;;;0.40;0.30;;;;;;;;;;5090752;28;20790;-73
2021/04/27 03:22:40;;;;;;;1.40;1.10;;;;;;;;;;5091463;28;20385;-73
2021/04/27 03:25:06;;;;;;;0.40;0.30;;;;;;;;;;5091401;28;20370;-74
2021/04/27 03:27:32;;;;;;;0.40;0.38;;;;;;;;;;5090744;28;20427;-73
2021/04/27 03:29:59;;;;;;;0.50;0.50;;;;;;;;;;5091104;28;20409;-73
2021/04/27 03:32:25;;;;;;;0.70;0.60;;;;;;;;;;5090681;28;20378;-73
2021/04/27 03:34:51;;;;;;;0.70;0.70;;;7.80;86.30;;;;;;5091194;28;20374;-73
2021/04/27 03:37:17;;;;;;;0.87;0.60;;;7.50;84.10;;;;;;5090633;28;20382;-73
2021/04/27 03:39:43;;;;;;;0.47;0.47;;;7.80;88.60;;;;;;5091137;28;20381;-73
2021/04/27 03:42:09;;;;;;;0.80;0.80;;;;;;;;;;5090533;28;20720;-74
2021/04/27 03:44:35;;;;;;;0.60;0.50;;;;;;;;;;5090589;28;20420;-73
2021/04/27 03:47:01;;;;;;;0.60;0.40;;;7.50;85.50;;;;;;5091031;28;20358;-73
2021/04/27 03:49:27;;;;;;;1.20;0.80;;;7.50;92.00;;;;;;5090366;28;20923;-73
2021/04/27 03:51:53;;;;;;;0.50;0.40;;;;;;;;;;5090816;28;20374;-73
2021/04/27 03:54:20;;;;;;;0.40;0.30;;;7.40;93.40;;;;;;5089598;28;20566;-73
2021/04/27 03:56:46;;;;;;;1.20;1.10;;;;;;;;;;5090949;28;20457;-74
2021/04/27 03:59:13;;;;;;;0.40;0.30;;;;;;;;;;5090148;28;20378;-74
2021/04/27 04:01:39;;;;;;;0.40;0.35;;;;;;;;;;5090722;28;20383;-73
2021/04/27 04:04:05;;;;;;;0.70;0.50;;;;;;;;;;5091248;28;20370;-73
2021/04/27 04:06:31;;;;;;;0.63;0.63;;;7.10;91.90;;;;;;5090068;28;20365;-73
2021/04/27 04:08:58;;;;;;;0.50;0.50;;;7.10;90.60;;;;;;5090793;28;20496;-73
2021/04/27 04:11:24;;;;;;;0.40;0.30;;;;;;;;;;5090240;28;20382;-73
2021/04/27 04:13:49;;;;;;;1.00;0.60;;;6.80;94.70;;;;;;5090719;28;20377;-73
2021/04/27 04:16:16;;;;;;;1.70;1.02;;;;;;;;;;5105901;28;20749;-73
2021/04/27 04:18:41;;;;;;;0.40;0.30;;;6.90;94.90;;;;;;5091063;28;20462;-73
2021/04/27 04:21:07;;;;;;;0.70;0.70;;;6.90;89.40;;;;;;5090919;28;20866;-73
2021/04/27 04:23:33;;;;;;;0.60;0.50;;;;;;;;;;5089945;28;20377;-73
2021/04/27 04:25:59;;;;;;;0.57;0.47;;;;;;;;;;5090784;28;20519;-73
2021/04/27 04:28:25;;;;;;;0.60;0.60;;;;;;;;;;5089904;28;20503;-74
2021/04/27 04:30:51;;;;;;;0.50;0.40;;;;;;;;;;5090950;28;20459;-74
2021/04/27 04:33:17;;;;;;;1.60;0.40;;;;;;;;;;5090411;28;20452;-74
2021/04/27 04:35:43;;;;;;;0.40;0.30;;;7.20;95.70;;;;;;5090529;28;20408;-73
2021/04/27 04:38:10;;;;;;;0.50;0.50;;;;;;;;;;5090521;28;20459;-74
2021/04/27 04:40:36;;;;;;;0.50;0.38;;;;;;;;;;5090251;28;20366;-73
2021/04/27 04:43:02;;;;;;;0.40;0.20;;;;;;;;;;5090966;28;20869;-73
2021/04/27 04:45:28;;;;;;;0.90;0.50;;;;;;;;;;5090063;28;20437;-74
2021/04/27 04:47:54;;;;;;;0.50;0.50;;;6.50;96.20;;;;;;5072498;28;20469;-74
2021/04/27 04:50:21;;;;;;;0.40;0.30;;;6.50;98.20;;;;;;5089839;28;20504;-74
2021/04/27 04:52:47;;;;;;;0.40;0.20;;;;;;;;;;5090515;28;20382;-73
2021/04/27 04:55:14;;;;;;;0.60;0.60;;;;;;;;;;5089929;28;21119;-75
2021/04/27 04:57:40;;;;;;;0.50;0.40;;;6.80;98.30;;;;;;5090287;28;20373;-74
2021/04/27 05:00:12;;;;;;;0.40;0.32;;;6.90;91.40;;;;;;5090562;28;20378;-75
2021/04/27 05:02:39;;;;;;;0.40;0.38;;;;;;;;;;5090224;28;20858;-74
2021/04/27 05:05:06;;;;;;;0.50;0.50;;;;;;;;;;5089979;28;20362;-74
2021/04/27 05:07:39;;;;;;;0.50;0.50;;;6.30;98.90;;;;;;5055017;28;20439;-74
2021/04/27 05:10:06;;;;;;;0.40;0.20;;;6.10;95.90;;;;;;5090563;28;20437;-74
2021/04/27 05:12:32;;;;;;;0.77;0.73;;;;;;;;;;5089429;28;21205;-74
2021/04/27 05:14:58;;;;;;;0.40;0.30;;;;;;;;;;5090558;28;20694;-74
2021/04/27 05:17:24;;;;;;;0.60;0.60;;;;;;;;;;5089534;28;20375;-74
2021/04/27 05:19:50;;;;;;;0.50;0.40;;;;;;;;;;5090535;28;20378;-74
2021/04/27 05:22:16;;;;;;;1.40;0.80;;;;;;;;;;5089396;28;20455;-76
2021/04/27 05:24:42;;;;;;;0.40;0.20;;;7.10;93.90;;;;;;5090389;28;20365;-74
2021/04/27 05:27:08;;;;;;;0.50;0.30;;;;;;;;;;5075221;28;20386;-74
2021/04/27 05:29:34;;;;;;;0.50;0.50;;;;;;;;;;5093217;28;20405;-74
2021/04/27 05:32:00;;;;;;;0.40;0.40;;;;;;;;;;5093659;28;20374;-74
2021/04/27 05:34:26;;;;;;;0.40;0.20;;;;;;;;;;5092535;28;20362;-73
2021/04/27 05:36:52;;;;;;;0.40;0.20;;;;;;;;;;5075633;28;20722;-74
2021/04/27 05:39:18;;;;;;;0.40;0.30;;;;;;;;;;5075079;28;20768;-74
2021/04/27 05:41:44;;;;;;;0.50;0.30;;;;;;;;;;5093737;28;20418;-73
2021/04/27 05:44:10;;;;;;;1.20;1.10;;;;;;;;;;5093275;28;20386;-73
2021/04/27 05:46:37;;;;;;;0.50;0.30;;;;;;;;;;5092250;28;20439;-73
2021/04/27 05:49:04;;;;;;;1.00;1.00;;;;;;;;;;5093610;28;20511;-73
2021/04/27 05:51:30;;;;;;;1.50;1.20;;;;;;;;;;5092644;28;20711;-74
2021/04/27 05:53:55;;;;;;;1.10;0.70;;;6.70;94.80;;;;;;5093391;28;20818;-74
2021/04/27 05:56:21;;;;;;;0.70;0.40;;;6.50;97.90;;;;;;5108508;28;20379;-74
2021/04/27 05:58:48;;;;;;;0.60;0.30;;;;;;;;;;5093344;28;20386;-74
2021/04/27 06:01:14;;;;;;;0.40;0.30;;;;;;;;;;5093718;28;20397;-73
2021/04/27 06:03:40;;;;;;;0.40;0.30;;;;;;;;;;5093286;28;20805;-73
2021/04/27 06:06:07;;;;;;;0.40;0.20;;;;;;;;;;5093630;28;20493;-73
2021/04/27 06:08:36;;;;;;;0.57;0.50;;;;;;;;;;5092821;28;20402;-73
2021/04/27 06:11:04;;;;;;;0.50;0.50;;;;;;;;;;5093390;28;20379;-73
2021/04/27 06:13:30;;;;;;;0.40;0.30;;;;;;;;;;5091096;28;20438;-74
2021/04/27 06:15:56;;;;;;;1.05;0.75;;;;;;;;;;5093004;28;20370;-73
2021/04/27 06:18:23;;;;;;;0.60;0.60;;;;;;;;;;5091835;28;20461;-74
2021/04/27 06:20:49;;;;;;;0.40;0.30;;;;;;;;;;5092587;28;20367;-74
2021/04/27 06:23:15;;;;;;;0.80;0.50;;;;;;;;;;5091479;28;20378;-74
2021/04/27 06:25:40;;;;;;;0.60;0.60;;;7.20;92.30;;;;;;5092112;28;20706;-73
2021/04/27 06:28:06;;;;;;;0.80;0.50;;;;;;;;;;5091791;28;20379;-73
2021/04/27 06:30:32;;;;;;;0.40;0.30;;;;;;;;;;5090439;28;20431;-73
2021/04/27 06:32:58;;;;;;;0.40;0.20;;;7.00;94.00;;;;;;5091962;28;20370;-72
2021/04/27 06:35:27;;;;;;;0.70;0.60;;;7.10;92.90;;;;;;5091928;28;20370;-73
2021/04/27 06:37:54;;;;;;;0.50;0.30;;;;;;;;;;5072932;28;20420;-72
2021/04/27 06:40:20;;;;;;;1.10;0.70;;;;;;;;;;5092201;28;20381;-74
2021/04/27 06:42:47;;;;;;;0.40;0.30;;;;;;;;;;5074068;28;20389;-73
2021/04/27 06:45:13;;;;;;;0.50;0.32;;;7.40;92.10;;;;;;5092166;28;20431;-74
2021/04/27 06:47:39;;;;;;;0.50;0.30;;;;;;;;;;5091364;28;20382;-73
2021/04/27 06:50:05;;;;;;;0.40;0.37;;;;;;;;;;5092307;28;20459;-73
2021/04/27 06:52:31;;;;;;;0.60;0.50;;;;;;;;;;5091629;28;20374;-73
2021/04/27 06:54:57;;;;;;;0.50;0.30;;;7.20;96.10;;;;;;5092441;28;20704;-73
2021/04/27 06:57:23;;;;;;;0.50;0.30;;;7.30;95.10;;;;;;5091389;28;20382;-73
2021/04/27 06:59:49;;;;;;;0.90;0.90;;;;;;;;;;5074288;28;20875;-72
2021/04/27 07:02:15;;;;;;;0.40;0.30;;;;;;;;;;5092254;28;20378;-73
2021/04/27 07:04:42;;;;;;;9.50;1.20;;;;;;;;;;5073463;28;20374;-72
2021/04/27 07:07:08;;;;;;;0.40;0.30;;;;;;;;;;5092687;28;20727;-74
2021/04/27 07:09:37;;;;;;;0.60;0.60;;;;;;;;;;5072890;28;20428;-73
2021/04/27 07:12:03;;;;;;;0.40;0.20;;;;;;;;;;5091827;28;20371;-73
2021/04/27 07:14:31;;;;;;;0.70;0.70;;;8.00;90.00;;;;;;5091536;28;20393;-73
2021/04/27 07:16:57;;;;;;;0.80;0.80;;;8.00;90.20;;;;;;5092471;28;20382;-73
2021/04/27 07:19:23;;;;;;;0.70;0.60;;;;;;;;;;5091353;28;20731;-75
2021/04/27 07:21:50;;;;;;;1.00;0.90;;;8.30;90.60;;;;;;5091631;28;20378;-73
2021/04/27 07:24:16;;;;;;;0.70;0.60;;;8.40;90.10;;;;;;5091571;28;20379;-73
2021/04/27 07:26:45;;;;;;;0.40;0.20;;;;;;;;;;5090592;28;20377;-73
2021/04/27 07:29:11;;;;;;;0.40;0.30;;;;;;;;;;5091313;28;20896;-73
2021/04/27 07:31:38;;;;;;;1.35;0.82;;;;;;;;;;5090768;28;20740;-73
2021/04/27 07:34:05;;;;;;;0.40;0.30;;;8.70;94.80;;;;;;5091595;28;20370;-72
2021/04/27 07:36:31;;;;;;;0.40;0.20;;;;;;;;;;5091539;28;20378;-73
2021/04/27 07:38:57;;;;;;;0.50;0.50;;;8.50;93.40;;;;;;5091983;28;20366;-73
2021/04/27 07:41:22;;;;;;;0.50;0.43;;;8.80;90.70;;;;;;5091430;28;20457;-73
2021/04/27 07:43:48;;;;;;;0.40;0.40;;;;;;;;;;5091769;28;20388;-72
2021/04/27 07:46:15;;;;;;;0.50;0.40;;;;;;;;;;5092010;28;20402;-72
2021/04/27 07:48:41;;;;;;;0.40;0.20;;;;;;;;;;5090396;28;20965;-73
2021/04/27 07:51:07;;;;;;;0.55;0.55;;;8.70;93.70;;;;;;5073642;28;20451;-73
2021/04/27 07:53:32;;;;;;;0.60;0.60;;;8.80;90.20;;;;;;5090986;28;20389;-73
2021/04/27 07:55:58;;;;;;;0.50;0.50;;;;;;;;;;5091993;28;20427;-71
2021/04/27 07:58:24;;;;;;;0.93;0.68;;;;;;;;;;5090581;28;20420;-75
2021/04/27 08:00:50;;;;;;;0.50;0.50;;;;;;;;;;5091755;28;20358;-73
2021/04/27 08:03:16;;;;;;;0.80;0.80;;;9.60;93.70;;;;;;5091545;28;20487;-73
2021/04/27 08:05:42;;;;;;;0.50;0.47;;;;;;;;;;5090922;28;20815;-74
2021/04/27 08:08:08;;;;;;;0.40;0.40;;;;;;;;;;5091062;28;20366;-74
2021/04/27 08:10:34;;;;;;;0.97;0.87;;;;;;;;;;5090790;28;20409;-73
2021/04/27 08:13:00;;;;;;;1.10;0.40;;;;;;;;;;5091282;28;20377;-73
2021/04/27 08:15:31;;;;;;;0.50;0.30;;;;;;;;;;5090953;28;20378;-73
2021/04/27 08:17:59;;;;;;;0.60;0.60;;;;;;;;;;5091356;28;20451;-74
2021/04/27 08:20:25;;;;;;;0.40;0.30;;;;;;;;;;5090393;28;20841;-74
2021/04/27 08:22:51;;;;;;;0.57;0.50;;;;;;;;;;5091061;28;20406;-74
2021/04/27 08:25:18;;;;;;;0.50;0.50;;;;;;;;;;5090657;28;20457;-73
2021/04/27 08:27:44;;;;;;;0.40;0.20;;;;;;;;;;5089838;28;20377;-73
2021/04/27 08:30:11;;;;;;;0.40;0.30;;;;;;;;;;5089974;28;20925;-73
2021/04/27 08:32:38;;;;;;;0.50;0.50;;;;;;;;;;5072405;28;20800;-74
2021/04/27 08:35:04;;;;;;;0.80;0.50;;;;;;;;;;5090958;28;20750;-74
2021/04/27 08:37:31;;;;;;;0.70;0.60;;;;;;;;;;5090786;28;20768;-74
2021/04/27 08:39:57;;;;;;;2.40;1.00;;;;;;;;;;5090857;28;20370;-73
2021/04/27 08:42:24;;;;;;;0.43;0.43;;;;;;;;;;5091070;28;20366;-73
2021/04/27 08:44:51;;;;;;;0.40;0.30;;;10.30;82.00;;;;;;5091166;28;20490;-73
2021/04/27 08:47:18;;;;;;;0.80;0.80;;;11.00;87.30;;;;;;5090885;28;20415;-73
2021/04/27 08:49:44;;;;;;;0.50;0.40;;;;;;;;;;5090259;28;20409;-73
2021/04/27 08:52:10;;;;;;;0.65;0.52;;;10.60;88.20;;;;;;5090675;28;20373;-73
2021/04/27 08:54:36;;;;;;;0.40;0.40;;;11.00;90.30;;;;;;5072173;28;20390;-73
2021/04/27 08:57:03;;;;;;;0.70;0.50;;;11.20;79.90;;;;;;5090957;28;20735;-74
2021/04/27 08:59:29;;;;;;;0.70;0.50;;;11.30;79.70;;;;;;5090185;28;20401;-74
2021/04/27 09:01:55;;;;;;;1.30;0.57;;;;;;;;;;5094299;28;20839;-73
2021/04/27 09:04:45;;;;;;;0.60;0.50;;;11.50;81.10;;;;;;5094830;28;20378;-71
2021/04/27 09:07:15;;;;;;;0.60;0.60;;;;;;;;;;5094687;28;20405;-73
2021/04/27 09:09:44;;;;;;;0.80;0.40;;;11.30;90.10;;;;;;5094042;28;20397;-73
2021/04/27 09:12:11;;;;;;;0.40;0.38;;;11.60;90.10;;;;;;5094730;28;20386;-73
2021/04/27 09:14:38;;;;;;;0.60;0.50;;;;;;;;;;5093670;28;20413;-74
2021/04/27 09:17:05;;;;;;;30.50;1.60;;;;;;;;;;5094140;28;20975;-74
2021/04/27 09:19:53;;;;;;;0.80;0.50;;;11.30;85.20;;;;;;5093706;28;20758;-73
2021/04/27 09:22:20;;;;;;;0.50;0.50;;;;;;;;;;5094458;28;20374;-73
2021/04/27 09:25:06;;;;;;;0.70;0.40;;;11.50;84.40;;;;;;5093821;28;20382;-73
2021/04/27 09:27:39;;;;;;;0.40;0.40;;;11.90;81.80;;;;;;5093935;28;20699;-73
2021/04/27 09:30:15;;;;;;;1.00;0.40;;;12.20;84.10;;;;;;5094178;28;20410;-72
2021/04/27 09:33:05;;;;;;;0.40;0.20;;;11.70;81.50;;;;;;5093562;28;20842;-73
2021/04/27 09:35:37;;;;;;;0.65;0.65;;;12.10;75.40;;;;;;5093388;28;20382;-73
2021/04/27 09:38:09;;;;;;;0.70;0.30;;;;;;;;;;5094284;28;20378;-72
2021/04/27 09:40:44;;;;;;;0.50;0.30;;;;;;;;;;5093617;28;20370;-72
2021/04/27 09:43:10;;;;;;;0.50;0.40;;;;;;;;;;5075918;28;20850;-74
2021/04/27 09:45:44;;;;;;;0.40;0.30;;;12.60;90.20;;;;;;5093470;28;20500;-72
2021/04/27 09:48:10;;;;;;;0.50;0.43;;;;;;;;;;5093911;28;20578;-72
2021/04/27 09:50:37;;;;;;;0.40;0.35;;;;;;;;;;5093325;28;20418;-73
2021/04/27 09:53:03;;;;;;;0.70;0.40;;;;;;;;;;5094257;28;20370;-74
2021/04/27 09:55:34;;;;;;;0.40;0.28;;;12.90;87.00;;;;;;5093247;28;20453;-75
2021/04/27 09:58:02;;;;;;;0.70;0.50;;;11.40;75.30;;;;;;5094056;28;20385;-74
2021/04/27 10:00:36;;;;;;;0.60;0.60;;;12.90;90.00;;;;;;5093780;28;20757;-74
2021/04/27 10:03:09;;;;;;;0.60;0.50;;;13.10;88.30;;;;;;5093884;28;20382;-73
2021/04/27 10:05:35;;;;;;;1.53;0.50;;;;;;;;;;5093144;28;20374;-74
2021/04/27 10:08:02;;;;;;;0.40;0.20;;;;;;;;;;5093789;28;20457;-74
2021/04/27 10:10:31;;;;;;;0.40;0.40;;;;;;;;;;5093737;28;20402;-74
2021/04/27 10:12:59;;;;;;;0.40;0.30;;;;;;;;;;5093013;28;20374;-74
2021/04/27 10:15:25;;;;;;;0.40;0.30;;;;;;;;;;5093286;28;20505;-74
2021/04/27 10:17:50;;;;;;;0.90;0.70;;;13.10;76.30;;;;;;5092904;28;20838;-73
2021/04/27 10:20:17;;;;;;;0.60;0.60;;;;;;;;;;5093535;28;20469;-73
2021/04/27 10:22:46;;;;;;;0.50;0.40;;;13.50;74.70;;;;;;5092813;28;20418;-74
2021/04/27 10:25:24;;;;;;;1.05;0.68;;;13.30;73.60;;;;;;5093361;28;20770;-74
2021/04/27 10:28:08;;;;;;;1.20;1.13;;;13.90;76.50;;;;;;5092583;28;20422;-73
2021/04/27 10:30:41;;;;;;;0.50;0.40;;;14.00;74.40;;;;;;5091993;28;20898;-74
2021/04/27 10:33:07;;;;;;;0.40;0.40;;;;;;;;;;5093323;28;20382;-74
2021/04/27 10:35:35;;;;;;;0.40;0.38;;;13.70;84.70;;;;;;5092276;28;20377;-75
2021/04/27 10:38:07;;;;;;;0.70;0.70;;;13.40;77.80;;;;;;5092970;28;20893;-74
2021/04/27 10:40:47;;;;;;;0.70;0.70;;;;;;;;;;5092477;28;20374;-74
2021/04/27 10:43:27;;;;;;;0.70;0.55;;;13.70;83.80;;;;;;5093021;28;20386;-75
2021/04/27 10:45:53;;;;;;;0.65;0.65;;;;;;;;;;5092405;28;20914;-74
2021/04/27 10:48:33;;;;;;;0.67;0.67;;;14.40;74.00;;;;;;5092873;28;20418;-74
2021/04/27 10:51:19;;;;;;;0.80;0.50;;;13.90;81.30;;;;;;5092577;28;20901;-74
2021/04/27 10:54:11;;;;;;;0.82;0.82;;;14.50;73.00;;;;;;5073865;28;20734;-74
2021/04/27 10:56:45;;;;;;;0.47;0.47;;;;;;;;;;5092283;28;20374;-72
2021/04/27 10:59:12;;;;;;;0.90;0.60;;;;;;;;;;5092358;28;20863;-73
2021/04/27 11:01:41;;;;;;;0.50;0.50;;;;;;;;;;5092350;28;20459;-73
2021/04/27 11:04:27;;;;;;;0.40;0.30;;;14.90;72.20;;;;;;5092642;28;20404;-73
2021/04/27 11:07:23;;;;;;;0.98;0.45;;;15.40;76.10;;;;;;5070283;28;20609;-72
2021/04/27 11:10:07;;;;;;;0.70;0.60;;;;;;;;;;5091789;28;20438;-74
2021/04/27 11:12:34;;;;;;;1.10;0.60;;;15.30;70.20;;;;;;5092304;28;20366;-75
2021/04/27 11:15:10;;;;;;;0.70;0.50;;;15.70;69.90;;;;;;5092516;28;20426;-73
2021/04/27 11:17:39;;;;;;;0.60;0.50;;;15.90;72.50;;;;;;5091695;28;20411;-70
2021/04/27 11:20:10;;;;;;;0.40;0.40;;;;;;;;;;5092195;28;20465;-72
2021/04/27 11:22:49;;;;;;;0.70;0.60;;;15.70;73.70;;;;;;5091356;28;20845;-72
2021/04/27 11:25:32;;;;;;;0.70;0.70;;;16.50;66.00;;;;;;5091774;28;20421;-72
2021/04/27 11:27:58;;;;;;;0.50;0.50;;;16.20;76.20;;;;;;5091557;28;20734;-72
2021/04/27 11:30:32;;;;;;;0.70;0.60;;;16.80;78.20;;;;;;5091849;28;20409;-72
2021/04/27 11:33:03;;;;;;;0.50;0.50;;;17.70;65.20;;;;;;5091235;28;20889;-73
2021/04/27 11:35:39;;;;;;;0.50;0.40;;;;;;;;;;5092001;28;20599;-73
2021/04/27 11:38:06;;;;;;;0.60;0.60;;;18.40;69.80;;;;;;5091502;28;20371;-73
2021/04/27 11:40:37;;;;;;;0.52;0.40;;;18.60;59.00;;;;;;5091702;28;20450;-72
2021/04/27 11:43:11;;;;;;;0.70;0.60;;;18.90;59.80;;;;;;5092162;28;20477;-72
2021/04/27 11:45:39;;;;;;;0.40;0.40;;;;;;;;;;5090526;28;20885;-73
2021/04/27 11:48:05;;;;;;;0.60;0.60;;;;;;;;;;5091710;28;20370;-72
2021/04/27 11:50:33;;;;;;;0.60;0.40;;;;;;;;;;5091188;28;20780;-73
2021/04/27 11:53:03;;;;;;;0.75;0.60;;;17.70;60.90;;;;;;5090451;28;20382;-74
2021/04/27 11:55:39;;;;;;;0.80;0.80;;;;;;;;;;5091165;28;20431;-74
2021/04/27 11:58:08;;;;;;;0.40;0.40;;;;;;;;;;5072974;28;20378;-74
2021/04/27 12:00:48;;;;;;;0.40;0.30;;;19.00;58.60;;;;;;5072882;28;20431;-73
2021/04/27 12:03:28;;;;;;;1.00;0.85;;;19.70;64.40;;;;;;5090549;28;20514;-74
2021/04/27 12:06:16;;;;;;;0.40;0.40;;;;;;;;;;5090168;28;20374;-73
2021/04/27 12:08:47;;;;;;;0.80;0.75;;;18.80;58.20;;;;;;5089934;28;20401;-73
2021/04/27 12:11:22;;;;;;;0.50;0.50;;;18.90;59.30;;;;;;5091289;28;20382;-73
2021/04/27 12:13:53;;;;;;;0.90;0.60;;;;;;;;;;5090368;28;20397;-75
2021/04/27 12:16:27;;;;;;;1.00;0.90;;;;;;;;;;5091109;28;20425;-74
2021/04/27 12:19:05;;;;;;;0.40;0.30;;;;;;;;;;5072363;28;20438;-74
2021/04/27 12:21:40;;;;;;;1.05;0.80;;;19.90;58.60;;;;;;5091150;28;20402;-73
2021/04/27 12:24:15;;;;;;;1.20;0.50;;;19.50;66.80;;;;;;5091232;28;20383;-73
2021/04/27 12:26:44;;;;;;;0.60;0.33;;;;;;;;;;5090603;28;20754;-74
2021/04/27 12:29:10;;;;;;;0.80;0.50;;;;;;;;;;5090606;28;20398;-73
2021/04/27 12:31:37;;;;;;;0.80;0.80;;;18.60;64.90;;;;;;5091064;28;20381;-74
2021/04/27 12:34:06;;;;;;;0.60;0.55;;;19.90;56.40;;;;;;5090985;28;20424;-74
2021/04/27 12:36:32;;;;;;;0.93;0.93;;;;;;;;;;5091022;28;20429;-73
2021/04/27 12:38:58;;;;;;;0.70;0.55;;;19.70;60.00;;;;;;5090276;28;20374;-72
2021/04/27 12:41:44;;;;;;;0.90;0.70;;;;;;;;;;5089365;28;21097;-75
2021/04/27 12:44:30;;;;;;;1.63;0.82;;;;;;;;;;5082850;28;20378;-71
2021/04/27 12:46:57;;;;;;;0.90;0.70;;;;;;;;;;5098175;28;20397;-72
2021/04/27 12:49:27;;;;;;;0.70;0.60;;;;;;;;;;5111514;28;20417;-72
2021/04/27 12:51:54;;;;;;;1.00;0.70;;;;;;;;;;5110159;28;20392;-72
2021/04/27 12:54:28;;;;;;;1.10;0.80;;;19.70;66.50;;;;;;5110621;28;20369;-71
2021/04/27 12:57:15;;;;;;;1.40;1.33;;;19.60;65.20;;;;;;5111234;28;20377;-72
2021/04/27 12:59:44;;;;;;;0.80;0.70;;;19.50;66.10;;;;;;5110892;28;20853;-72
2021/04/27 13:02:19;;;;;;;0.60;0.60;;;19.50;57.70;;;;;;5099428;28;20406;-72
2021/04/27 13:04:51;;;;;;;1.20;0.90;;;20.30;61.30;;;;;;5089849;28;20370;-72
2021/04/27 13:07:34;;;;;;;1.50;0.82;;;20.30;51.70;;;;;;5090423;28;20443;-73
2021/04/27 13:10:12;;;;;;;0.77;0.50;;;19.60;64.30;;;;;;5089985;28;20655;-72
2021/04/27 13:12:38;;;;;;;0.70;0.70;;;;;;;;;;5090687;28;20707;-71
2021/04/27 13:15:08;;;;;;;0.40;0.40;;;19.30;65.60;;;;;;5090234;28;20472;-74
2021/04/27 13:17:41;;;;;;;0.50;0.40;;;19.90;64.30;;;;;;5090782;28;20375;-70
2021/04/27 13:20:19;;;;;;;1.20;0.70;;;19.80;65.20;;;;;;5091035;28;20385;-72
2021/04/27 13:22:51;;;;;;;0.90;0.80;;;;;;;;;;5089754;28;20494;-73
2021/04/27 13:25:23;;;;;;;1.80;0.70;;;19.30;57.60;;;;;;5090154;28;20761;-72
2021/04/27 13:27:51;;;;;;;0.60;0.60;;;19.10;53.40;;;;;;5089450;28;20886;-72
2021/04/27 13:30:19;;;;;;;1.05;0.95;;;;;;;;;;5090330;28;20501;-73
2021/04/27 13:32:49;;;;;;;1.38;0.98;;;;;;;;;;5089853;28;20385;-72
2021/04/27 13:35:25;;;;;;;0.60;0.40;;;;;;;;;;5089521;28;20370;-71
2021/04/27 13:37:51;;;;;;;1.40;1.10;;;20.30;61.80;;;;;;5088671;28;20532;-72
2021/04/27 13:40:18;;;;;;;1.00;0.80;;;;;;;;;;5089711;28;20390;-71
2021/04/27 13:42:49;;;;;;;0.70;0.70;;;;;;;;;;5089461;28;20374;-76
2021/04/27 13:45:15;;;;;;;2.15;0.40;;;20.30;55.20;;;;;;5071293;28;20406;-71
2021/04/27 13:47:41;;;;;;;0.90;0.80;;;20.10;65.40;;;;;;5073986;28;20727;-71
2021/04/27 13:50:08;;;;;;;1.50;0.80;;;19.60;62.00;;;;;;5092781;28;20406;-73
2021/04/27 13:52:34;;;;;;;0.40;0.30;;;19.70;55.80;;;;;;5075333;28;20408;-71
2021/04/27 13:54:59;;;;;;;1.00;0.70;;;19.90;62.40;;;;;;5092898;28;20371;-71
2021/04/27 13:57:25;;;;;;;1.90;1.40;;;20.10;56.40;;;;;;5093604;28;20375;-71
2021/04/27 13:59:51;;;;;;;1.90;1.80;;;;;;;;;;5091013;28;20476;-74
2021/04/27 14:02:17;;;;;;;0.70;0.70;;;;;;;;;;5093998;28;20528;-73